Belgorod, Russia
Current Conditions -  °F | °C
As of 4:30 PM on Friday 24 Oct 2014 (Local Time) from UUOB Reporting Station
Clear Clear  
Wind Chill: 21°   Ceiling: Unl
Heat Index: 30°   Visibility: 6mi
Dew Point: 14°   Wind: 11mph
Humidity: 51%   Direction: 40°NE
Pressure: 30.48"   Gusts: NA
Location:  50.61°N, 36.59°E
Report Text: UUOB 241330Z 04005MPS CAVOK M01/M10 Q1032 11090060 NOSIG
Loading
Personal Weather Stations






























Interactive Weather Map
Tropical Storm Tracking
New forecast layout! Learn more

10-Day Weather Forecast

Advertisements
Track Severe Weather on mobile